sensor_id;sensor_type;location;lat;lon;timestamp;pressure;altitude;pressure_sealevel;temperature;humidity
85244;BME280;75643;56.928;41.094;2024-02-14T04:58:57;101857.47;;;-19.40;77.25
85244;BME280;75643;56.928;41.094;2024-02-14T05:01:24;101866.13;;;-19.02;76.63
85244;BME280;75643;56.928;41.094;2024-02-14T05:03:50;101850.09;;;-18.72;75.74
85244;BME280;75643;56.928;41.094;2024-02-14T05:06:17;101849.81;;;-18.30;75.56
85244;BME280;75643;56.928;41.094;2024-02-14T05:08:43;101866.97;;;-17.64;74.37
85244;BME280;75643;56.928;41.094;2024-02-14T05:11:10;101866.59;;;-17.02;72.95
85244;BME280;75643;56.928;41.094;2024-02-14T05:13:36;101848.22;;;-16.28;71.77
85244;BME280;75643;56.928;41.094;2024-02-14T05:16:04;101873.22;;;-15.63;70.33
85244;BME280;75643;56.928;41.094;2024-02-14T05:18:31;101875.94;;;-15.06;71.10
85244;BME280;75643;56.928;41.094;2024-02-14T05:20:57;101852.28;;;-14.64;66.87
85244;BME280;75643;56.928;41.094;2024-02-14T05:23:25;101869.28;;;-13.85;67.23
85244;BME280;75643;56.928;41.094;2024-02-14T05:25:51;101857.50;;;-13.11;67.29
85244;BME280;75643;56.928;41.094;2024-02-14T05:28:18;101873.19;;;-12.32;66.46
85244;BME280;75643;56.928;41.094;2024-02-14T05:30:45;101861.84;;;-11.42;62.83
85244;BME280;75643;56.928;41.094;2024-02-14T05:33:31;101877.84;;;-10.31;63.56
85244;BME280;75643;56.928;41.094;2024-02-14T05:35:57;101892.06;;;-10.01;60.73
85244;BME280;75643;56.928;41.094;2024-02-14T05:38:23;101891.22;;;-9.93;57.74
85244;BME280;75643;56.928;41.094;2024-02-14T05:40:50;101886.19;;;-9.58;59.06
85244;BME280;75643;56.928;41.094;2024-02-14T05:43:16;101886.44;;;-9.31;56.79
85244;BME280;75643;56.928;41.094;2024-02-14T05:45:45;101901.78;;;-8.71;57.08
85244;BME280;75643;56.928;41.094;2024-02-14T05:48:12;101898.06;;;-8.21;52.64
85244;BME280;75643;56.928;41.094;2024-02-14T05:50:39;101891.72;;;-7.25;50.07
85244;BME280;75643;56.928;41.094;2024-02-14T05:53:05;101902.88;;;-6.21;47.38
85244;BME280;75643;56.928;41.094;2024-02-14T05:55:35;101888.47;;;-6.19;42.76
85244;BME280;75643;56.928;41.094;2024-02-14T05:58:03;101896.06;;;-5.51;41.87
85244;BME280;75643;56.928;41.094;2024-02-14T06:00:36;101890.91;;;-5.01;41.99
85244;BME280;75643;56.928;41.094;2024-02-14T06:03:02;101893.63;;;-4.99;42.84
85244;BME280;75643;56.928;41.094;2024-02-14T06:05:31;101877.13;;;-4.07;41.44
85244;BME280;75643;56.928;41.094;2024-02-14T06:07:57;101893.53;;;-2.96;36.32
85244;BME280;75643;56.928;41.094;2024-02-14T06:10:27;101886.81;;;-2.47;35.72
85244;BME280;75643;56.928;41.094;2024-02-14T06:12:53;101900.63;;;-2.24;32.05
85244;BME280;75643;56.928;41.094;2024-02-14T06:15:20;101858.66;;;-1.58;32.52
85244;BME280;75643;56.928;41.094;2024-02-14T06:17:49;101860.88;;;-1.27;29.96
85244;BME280;75643;56.928;41.094;2024-02-14T06:20:16;101891.66;;;-0.68;28.35
85244;BME280;75643;56.928;41.094;2024-02-14T06:22:44;101893.63;;;-0.91;27.94
85244;BME280;75643;56.928;41.094;2024-02-14T06:25:10;101874.38;;;-0.28;27.66
85244;BME280;75643;56.928;41.094;2024-02-14T06:27:57;101910.06;;;-1.53;29.51
85244;BME280;75643;56.928;41.094;2024-02-14T06:30:23;101908.75;;;-3.11;32.19
85244;BME280;75643;56.928;41.094;2024-02-14T06:32:50;101928.66;;;-3.87;31.97
85244;BME280;75643;56.928;41.094;2024-02-14T06:35:19;101917.59;;;-3.96;32.70
85244;BME280;75643;56.928;41.094;2024-02-14T06:37:47;101924.69;;;-3.93;33.13
85244;BME280;75643;56.928;41.094;2024-02-14T06:40:14;101924.88;;;-3.80;32.06
85244;BME280;75643;56.928;41.094;2024-02-14T06:42:43;101918.19;;;-4.42;31.89
85244;BME280;75643;56.928;41.094;2024-02-14T06:45:09;101919.66;;;-4.76;32.81
85244;BME280;75643;56.928;41.094;2024-02-14T06:47:39;101927.44;;;-4.34;33.27
85244;BME280;75643;56.928;41.094;2024-02-14T06:50:06;101917.69;;;-3.29;32.02
85244;BME280;75643;56.928;41.094;2024-02-14T06:52:33;101914.00;;;-2.76;32.64
85244;BME280;75643;56.928;41.094;2024-02-14T06:55:00;101910.47;;;-1.72;30.01
85244;BME280;75643;56.928;41.094;2024-02-14T06:57:26;101924.63;;;-2.38;30.08
85244;BME280;75643;56.928;41.094;2024-02-14T06:59:53;101930.06;;;-3.37;29.89
85244;BME280;75643;56.928;41.094;2024-02-14T07:02:20;101904.38;;;-3.12;31.06
85244;BME280;75643;56.928;41.094;2024-02-14T07:04:49;101919.91;;;-2.67;29.94
85244;BME280;75643;56.928;41.094;2024-02-14T07:07:15;101920.66;;;-3.46;31.08
85244;BME280;75643;56.928;41.094;2024-02-14T07:09:42;101923.94;;;-2.59;31.62
85244;BME280;75643;56.928;41.094;2024-02-14T07:12:10;101925.91;;;-1.73;28.75
85244;BME280;75643;56.928;41.094;2024-02-14T07:14:36;101913.19;;;-1.45;29.20
85244;BME280;75643;56.928;41.094;2024-02-14T07:17:03;101928.78;;;-1.57;28.11
85244;BME280;75643;56.928;41.094;2024-02-14T07:19:30;101926.34;;;-1.31;27.91
85244;BME280;75643;56.928;41.094;2024-02-14T07:21:56;101913.94;;;-1.10;25.24
85244;BME280;75643;56.928;41.094;2024-02-14T07:24:23;101924.06;;;-0.11;26.27
85244;BME280;75643;56.928;41.094;2024-02-14T07:26:49;101931.06;;;-0.10;24.29
85244;BME280;75643;56.928;41.094;2024-02-14T07:29:16;101904.28;;;-0.22;24.97
85244;BME280;75643;56.928;41.094;2024-02-14T07:31:42;101921.06;;;-0.04;23.56
85244;BME280;75643;56.928;41.094;2024-02-14T07:34:08;101934.47;;;0.03;24.49
85244;BME280;75643;56.928;41.094;2024-02-14T07:36:35;101900.56;;;0.01;22.99
85244;BME280;75643;56.928;41.094;2024-02-14T07:39:01;101916.13;;;0.27;24.46
85244;BME280;75643;56.928;41.094;2024-02-14T07:41:28;101930.41;;;1.32;22.14
85244;BME280;75643;56.928;41.094;2024-02-14T07:43:58;101923.00;;;1.25;22.93
85244;BME280;75643;56.928;41.094;2024-02-14T07:46:24;101910.34;;;1.31;22.88
85244;BME280;75643;56.928;41.094;2024-02-14T07:48:52;101909.78;;;1.07;22.28
85244;BME280;75643;56.928;41.094;2024-02-14T07:51:19;101924.19;;;1.15;23.40
85244;BME280;75643;56.928;41.094;2024-02-14T07:53:45;101923.81;;;0.39;23.39
85244;BME280;75643;56.928;41.094;2024-02-14T07:56:11;101929.50;;;0.89;23.78
85244;BME280;75643;56.928;41.094;2024-02-14T07:58:38;101929.59;;;1.33;21.92
85244;BME280;75643;56.928;41.094;2024-02-14T08:01:06;101929.03;;;1.24;22.04
85244;BME280;75643;56.928;41.094;2024-02-14T08:03:32;101937.50;;;1.64;21.40
85244;BME280;75643;56.928;41.094;2024-02-14T08:05:59;101921.16;;;1.52;21.76
85244;BME280;75643;56.928;41.094;2024-02-14T08:08:27;101929.72;;;1.95;21.40
85244;BME280;75643;56.928;41.094;2024-02-14T08:10:53;101931.38;;;1.19;21.23
85244;BME280;75643;56.928;41.094;2024-02-14T08:13:20;101919.09;;;0.74;22.01
85244;BME280;75643;56.928;41.094;2024-02-14T08:15:47;101903.84;;;0.95;21.76
85244;BME280;75643;56.928;41.094;2024-02-14T08:18:14;101922.06;;;1.52;20.89
85244;BME280;75643;56.928;41.094;2024-02-14T09:02:20;101935.97;;;-11.02;43.03
85244;BME280;75643;56.928;41.094;2024-02-14T09:04:48;101963.03;;;-10.95;44.77
85244;BME280;75643;56.928;41.094;2024-02-14T09:07:18;101971.72;;;-11.02;45.58
85244;BME280;75643;56.928;41.094;2024-02-14T09:09:48;101958.81;;;-10.63;44.16
85244;BME280;75643;56.928;41.094;2024-02-14T09:12:18;101954.00;;;-10.85;44.39
85244;BME280;75643;56.928;41.094;2024-02-14T09:14:50;101945.66;;;-11.06;46.42
85244;BME280;75643;56.928;41.094;2024-02-14T09:17:17;101938.00;;;-11.06;45.83
85244;BME280;75643;56.928;41.094;2024-02-14T09:19:44;101948.38;;;-10.73;45.99
85244;BME280;75643;56.928;41.094;2024-02-14T09:22:11;101952.09;;;-10.79;46.43
85244;BME280;75643;56.928;41.094;2024-02-14T09:24:44;101978.34;;;-10.64;46.23
85244;BME280;75643;56.928;41.094;2024-02-14T09:27:10;101970.19;;;-10.68;46.87
85244;BME280;75643;56.928;41.094;2024-02-14T09:29:37;101956.09;;;-10.65;47.02
85244;BME280;75643;56.928;41.094;2024-02-14T09:32:04;101970.13;;;-10.93;47.39
85244;BME280;75643;56.928;41.094;2024-02-14T09:34:30;101972.06;;;-11.53;49.39
85244;BME280;75643;56.928;41.094;2024-02-14T09:36:57;101971.69;;;-11.33;49.04
85244;BME280;75643;56.928;41.094;2024-02-14T09:39:26;101975.81;;;-11.11;49.43
85244;BME280;75643;56.928;41.094;2024-02-14T09:41:59;101967.25;;;-11.11;49.15
85244;BME280;75643;56.928;41.094;2024-02-14T09:44:27;101962.72;;;-11.14;49.69
85244;BME280;75643;56.928;41.094;2024-02-14T09:46:55;101928.53;;;-11.54;50.00
85244;BME280;75643;56.928;41.094;2024-02-14T09:49:23;101963.53;;;-11.22;49.96
85244;BME280;75643;56.928;41.094;2024-02-14T09:51:50;101966.50;;;-11.26;50.05
85244;BME280;75643;56.928;41.094;2024-02-14T09:54:18;101958.44;;;-11.38;50.40
85244;BME280;75643;56.928;41.094;2024-02-14T09:56:50;101944.47;;;-11.48;50.67
85244;BME280;75643;56.928;41.094;2024-02-14T09:59:22;101965.34;;;-11.37;50.64
85244;BME280;75643;56.928;41.094;2024-02-14T10:01:49;101965.50;;;-11.35;50.21
85244;BME280;75643;56.928;41.094;2024-02-14T10:04:20;101940.47;;;-11.46;50.39
85244;BME280;75643;56.928;41.094;2024-02-14T10:06:48;101952.91;;;-11.49;50.81
85244;BME280;75643;56.928;41.094;2024-02-14T10:09:25;101973.31;;;-11.49;50.58
85244;BME280;75643;56.928;41.094;2024-02-14T10:11:52;101950.97;;;-11.59;50.61
85244;BME280;75643;56.928;41.094;2024-02-14T10:14:18;101979.56;;;-11.54;51.52
85244;BME280;75643;56.928;41.094;2024-02-14T10:16:46;101972.75;;;-11.70;51.85
85244;BME280;75643;56.928;41.094;2024-02-14T10:19:17;101959.34;;;-11.60;51.58
85244;BME280;75643;56.928;41.094;2024-02-14T10:21:58;101951.94;;;-11.66;51.28
85244;BME280;75643;56.928;41.094;2024-02-14T10:24:25;101954.59;;;-11.73;51.25
85244;BME280;75643;56.928;41.094;2024-02-14T10:26:52;101969.41;;;-11.62;52.09
85244;BME280;75643;56.928;41.094;2024-02-14T10:29:22;101967.06;;;-11.83;52.13
85244;BME280;75643;56.928;41.094;2024-02-14T10:31:49;101969.31;;;-11.86;52.34
85244;BME280;75643;56.928;41.094;2024-02-14T10:34:15;101966.75;;;-11.86;52.45
85244;BME280;75643;56.928;41.094;2024-02-14T10:36:43;101946.09;;;-11.96;52.77
85244;BME280;75643;56.928;41.094;2024-02-14T10:39:11;101959.16;;;-11.93;53.35
85244;BME280;75643;56.928;41.094;2024-02-14T10:41:37;101949.84;;;-11.92;53.27
85244;BME280;75643;56.928;41.094;2024-02-14T10:44:04;101958.00;;;-11.88;53.08
85244;BME280;75643;56.928;41.094;2024-02-14T10:46:32;101954.69;;;-12.02;53.24
85244;BME280;75643;56.928;41.094;2024-02-14T10:49:04;101961.59;;;-12.01;53.53
85244;BME280;75643;56.928;41.094;2024-02-14T10:51:32;101950.31;;;-12.04;53.93
85244;BME280;75643;56.928;41.094;2024-02-14T10:54:01;101955.69;;;-11.93;54.06
85244;BME280;75643;56.928;41.094;2024-02-14T10:56:30;101948.31;;;-12.06;53.19
85244;BME280;75643;56.928;41.094;2024-02-14T10:58:59;101962.75;;;-11.84;54.20
85244;BME280;75643;56.928;41.094;2024-02-14T11:01:29;101944.53;;;-11.87;54.30
85244;BME280;75643;56.928;41.094;2024-02-14T11:03:59;101955.59;;;-11.79;52.93
85244;BME280;75643;56.928;41.094;2024-02-14T11:06:26;101950.31;;;-11.81;53.72
85244;BME280;75643;56.928;41.094;2024-02-14T11:09:02;101950.47;;;-11.79;53.25
85244;BME280;75643;56.928;41.094;2024-02-14T11:11:37;101957.53;;;-11.77;53.61
85244;BME280;75643;56.928;41.094;2024-02-14T11:14:03;101945.94;;;-11.82;53.19
85244;BME280;75643;56.928;41.094;2024-02-14T11:16:32;101940.22;;;-11.95;53.47
85244;BME280;75643;56.928;41.094;2024-02-14T11:19:10;101963.38;;;-11.78;54.09
85244;BME280;75643;56.928;41.094;2024-02-14T11:21:41;101952.72;;;-11.89;53.44
85244;BME280;75643;56.928;41.094;2024-02-14T11:24:15;101931.09;;;-11.93;53.94
85244;BME280;75643;56.928;41.094;2024-02-14T11:26:48;101952.69;;;-11.82;53.76
85244;BME280;75643;56.928;41.094;2024-02-14T11:29:18;101934.06;;;-11.97;54.65
85244;BME280;75643;56.928;41.094;2024-02-14T11:31:48;101960.50;;;-11.81;53.71
85244;BME280;75643;56.928;41.094;2024-02-14T11:34:17;101956.97;;;-11.90;53.86
85244;BME280;75643;56.928;41.094;2024-02-14T11:36:45;101935.53;;;-11.99;54.73
85244;BME280;75643;56.928;41.094;2024-02-14T11:39:12;101937.25;;;-11.84;54.62
85244;BME280;75643;56.928;41.094;2024-02-14T11:41:42;101968.38;;;-11.71;53.89
85244;BME280;75643;56.928;41.094;2024-02-14T11:44:09;101928.72;;;-11.91;54.32
85244;BME280;75643;56.928;41.094;2024-02-14T11:46:57;101973.59;;;-11.62;54.25
85244;BME280;75643;56.928;41.094;2024-02-14T11:49:28;101932.13;;;-11.84;53.70
85244;BME280;75643;56.928;41.094;2024-02-14T11:51:58;101968.22;;;-11.88;54.99
85244;BME280;75643;56.928;41.094;2024-02-14T11:54:28;101963.34;;;-11.93;54.95
85244;BME280;75643;56.928;41.094;2024-02-14T11:56:55;101964.75;;;-11.88;54.60
85244;BME280;75643;56.928;41.094;2024-02-14T11:59:23;101960.34;;;-12.05;55.66
85244;BME280;75643;56.928;41.094;2024-02-14T12:01:54;101973.03;;;-11.98;55.26
85244;BME280;75643;56.928;41.094;2024-02-14T12:04:24;101973.72;;;-11.92;55.94
85244;BME280;75643;56.928;41.094;2024-02-14T12:06:50;101974.50;;;-11.77;55.43
85244;BME280;75643;56.928;41.094;2024-02-14T12:09:17;101958.41;;;-11.92;55.16
85244;BME280;75643;56.928;41.094;2024-02-14T12:11:53;101974.50;;;-12.00;56.09
85244;BME280;75643;56.928;41.094;2024-02-14T12:14:28;101965.63;;;-12.04;55.50
85244;BME280;75643;56.928;41.094;2024-02-14T12:17:01;101974.41;;;-11.86;55.39
85244;BME280;75643;56.928;41.094;2024-02-14T12:19:29;101988.97;;;-11.85;55.40
85244;BME280;75643;56.928;41.094;2024-02-14T12:22:21;101966.41;;;-12.12;56.33
85244;BME280;75643;56.928;41.094;2024-02-14T12:24:56;101978.13;;;-12.21;56.25
85244;BME280;75643;56.928;41.094;2024-02-14T12:27:25;101976.06;;;-12.39;56.52
85244;BME280;75643;56.928;41.094;2024-02-14T12:29:52;101982.78;;;-12.39;57.49
85244;BME280;75643;56.928;41.094;2024-02-14T12:32:19;101990.41;;;-12.32;57.17
85244;BME280;75643;56.928;41.094;2024-02-14T12:34:45;101980.91;;;-12.26;56.18
85244;BME280;75643;56.928;41.094;2024-02-14T12:37:11;101983.44;;;-12.26;56.70
85244;BME280;75643;56.928;41.094;2024-02-14T12:39:38;101984.72;;;-12.30;56.87
85244;BME280;75643;56.928;41.094;2024-02-14T12:42:04;101979.47;;;-12.31;56.80
85244;BME280;75643;56.928;41.094;2024-02-14T12:44:31;102002.56;;;-12.30;56.30
85244;BME280;75643;56.928;41.094;2024-02-14T12:46:59;101997.34;;;-12.38;57.10
85244;BME280;75643;56.928;41.094;2024-02-14T12:49:25;102002.28;;;-12.47;56.76
85244;BME280;75643;56.928;41.094;2024-02-14T12:51:52;101996.34;;;-12.55;57.62
85244;BME280;75643;56.928;41.094;2024-02-14T12:54:18;102005.63;;;-12.55;58.02
85244;BME280;75643;56.928;41.094;2024-02-14T12:56:45;101984.97;;;-12.72;58.24
85244;BME280;75643;56.928;41.094;2024-02-14T12:59:17;102005.13;;;-12.67;57.89
85244;BME280;75643;56.928;41.094;2024-02-14T13:01:44;101993.97;;;-12.90;58.26
85244;BME280;75643;56.928;41.094;2024-02-14T13:04:11;101999.41;;;-12.94;58.90
85244;BME280;75643;56.928;41.094;2024-02-14T13:06:38;101979.34;;;-13.14;59.49
85244;BME280;75643;56.928;41.094;2024-02-14T13:09:04;102009.44;;;-13.03;59.32
85244;BME280;75643;56.928;41.094;2024-02-14T13:11:34;102019.78;;;-13.01;59.76
85244;BME280;75643;56.928;41.094;2024-02-14T13:14:01;101997.69;;;-13.16;59.81
85244;BME280;75643;56.928;41.094;2024-02-14T13:16:28;102020.38;;;-13.11;59.79
85244;BME280;75643;56.928;41.094;2024-02-14T13:18:55;102018.78;;;-13.17;59.84
85244;BME280;75643;56.928;41.094;2024-02-14T13:21:24;101993.94;;;-13.34;60.27
85244;BME280;75643;56.928;41.094;2024-02-14T13:23:54;102034.25;;;-13.30;60.92
85244;BME280;75643;56.928;41.094;2024-02-14T13:26:24;102029.91;;;-13.38;60.77
85244;BME280;75643;56.928;41.094;2024-02-14T13:28:53;102009.22;;;-13.55;60.94
85244;BME280;75643;56.928;41.094;2024-02-14T13:31:22;102043.16;;;-13.48;61.73
85244;BME280;75643;56.928;41.094;2024-02-14T13:33:50;102034.66;;;-13.62;61.86
85244;BME280;75643;56.928;41.094;2024-02-14T13:36:19;102039.94;;;-13.68;62.27
85244;BME280;75643;56.928;41.094;2024-02-14T13:38:48;102044.63;;;-13.71;62.37
85244;BME280;75643;56.928;41.094;2024-02-14T13:41:17;102029.00;;;-13.88;63.14
85244;BME280;75643;56.928;41.094;2024-02-14T13:43:45;102043.16;;;-13.83;63.14
85244;BME280;75643;56.928;41.094;2024-02-14T13:46:14;102040.25;;;-13.93;63.26
85244;BME280;75643;56.928;41.094;2024-02-14T13:48:42;102031.72;;;-14.08;62.82
85244;BME280;75643;56.928;41.094;2024-02-14T13:51:14;102042.22;;;-14.12;63.31
85244;BME280;75643;56.928;41.094;2024-02-14T13:53:42;102041.31;;;-14.13;63.82
85244;BME280;75643;56.928;41.094;2024-02-14T13:56:09;102048.38;;;-14.24;64.22
85244;BME280;75643;56.928;41.094;2024-02-14T13:58:37;102053.78;;;-14.35;64.37
85244;BME280;75643;56.928;41.094;2024-02-14T14:01:04;102064.34;;;-14.39;64.37
85244;BME280;75643;56.928;41.094;2024-02-14T14:03:33;102046.13;;;-14.57;64.86
85244;BME280;75643;56.928;41.094;2024-02-14T14:06:03;102068.06;;;-14.57;64.97
85244;BME280;75643;56.928;41.094;2024-02-14T14:08:34;102060.06;;;-14.67;65.60
85244;BME280;75643;56.928;41.094;2024-02-14T14:11:04;102062.75;;;-14.73;65.33
85244;BME280;75643;56.928;41.094;2024-02-14T14:13:32;102069.97;;;-14.76;65.54
85244;BME280;75643;56.928;41.094;2024-02-14T14:16:00;102038.84;;;-15.02;65.77
85244;BME280;75643;56.928;41.094;2024-02-14T14:18:26;102084.25;;;-14.90;65.88
85244;BME280;75643;56.928;41.094;2024-02-14T14:20:53;102070.75;;;-15.04;66.52
85244;BME280;75643;56.928;41.094;2024-02-14T14:23:20;102087.25;;;-15.00;66.32
85244;BME280;75643;56.928;41.094;2024-02-14T14:25:48;102080.34;;;-15.01;66.80
85244;BME280;75643;56.928;41.094;2024-02-14T14:28:21;102021.28;;;-15.34;66.33
85244;BME280;75643;56.928;41.094;2024-02-14T14:30:53;102078.69;;;-15.08;67.33
85244;BME280;75643;56.928;41.094;2024-02-14T14:33:23;102035.06;;;-15.32;67.43
85244;BME280;75643;56.928;41.094;2024-02-14T14:35:53;102065.91;;;-15.22;66.98
85244;BME280;75643;56.928;41.094;2024-02-14T14:38:21;102080.28;;;-15.15;66.64
85244;BME280;75643;56.928;41.094;2024-02-14T14:40:48;102067.53;;;-15.22;67.09
85244;BME280;75643;56.928;41.094;2024-02-14T14:43:15;102088.78;;;-15.15;66.33
85244;BME280;75643;56.928;41.094;2024-02-14T14:45:45;102075.09;;;-15.29;66.46
85244;BME280;75643;56.928;41.094;2024-02-14T14:48:17;102071.78;;;-15.36;66.88
85244;BME280;75643;56.928;41.094;2024-02-14T14:50:43;102092.63;;;-15.31;66.75
85244;BME280;75643;56.928;41.094;2024-02-14T14:53:13;102108.47;;;-15.26;67.51
85244;BME280;75643;56.928;41.094;2024-02-14T14:55:57;102101.44;;;-15.42;67.40
85244;BME280;75643;56.928;41.094;2024-02-14T14:58:25;102088.44;;;-15.64;67.42
85244;BME280;75643;56.928;41.094;2024-02-14T15:00:58;102122.38;;;-15.57;67.39
85244;BME280;75643;56.928;41.094;2024-02-14T15:03:27;102090.31;;;-15.76;67.99
85244;BME280;75643;56.928;41.094;2024-02-14T15:05:56;102124.75;;;-15.71;68.34
85244;BME280;75643;56.928;41.094;2024-02-14T15:08:24;102113.75;;;-15.84;68.39
85244;BME280;75643;56.928;41.094;2024-02-14T15:10:55;102119.38;;;-15.87;68.61
85244;BME280;75643;56.928;41.094;2024-02-14T15:13:24;102096.63;;;-15.99;68.42
85244;BME280;75643;56.928;41.094;2024-02-14T15:15:51;102131.91;;;-15.81;69.14
85244;BME280;75643;56.928;41.094;2024-02-14T15:18:19;102107.88;;;-15.97;68.56
85244;BME280;75643;56.928;41.094;2024-02-14T15:20:46;102137.44;;;-15.91;68.95
85244;BME280;75643;56.928;41.094;2024-02-14T15:23:13;102140.25;;;-15.95;68.97
85244;BME280;75643;56.928;41.094;2024-02-14T15:25:43;102139.34;;;-15.95;69.70
85244;BME280;75643;56.928;41.094;2024-02-14T15:28:13;102126.63;;;-16.02;69.70
85244;BME280;75643;56.928;41.094;2024-02-14T15:30:52;102144.94;;;-15.98;69.58
85244;BME280;75643;56.928;41.094;2024-02-14T15:33:38;102141.75;;;-16.09;69.94
85244;BME280;75643;56.928;41.094;2024-02-14T15:36:07;102075.09;;;-16.48;70.18
85244;BME280;75643;56.928;41.094;2024-02-14T15:38:34;102099.78;;;-16.40;70.22
85244;BME280;75643;56.928;41.094;2024-02-14T15:41:01;102135.00;;;-16.29;70.52
85244;BME280;75643;56.928;41.094;2024-02-14T15:43:32;102157.56;;;-16.30;70.62
85244;BME280;75643;56.928;41.094;2024-02-14T15:46:00;102149.50;;;-16.40;70.66
85244;BME280;75643;56.928;41.094;2024-02-14T15:48:28;102147.06;;;-16.46;71.41
85244;BME280;75643;56.928;41.094;2024-02-14T15:50:59;102135.25;;;-16.52;70.87
85244;BME280;75643;56.928;41.094;2024-02-14T15:53:27;102132.53;;;-16.67;70.92
85244;BME280;75643;56.928;41.094;2024-02-14T15:55:56;102150.75;;;-16.56;71.54
85244;BME280;75643;56.928;41.094;2024-02-14T15:58:24;102135.50;;;-16.64;71.35
85244;BME280;75643;56.928;41.094;2024-02-14T16:00:52;102151.91;;;-16.67;70.96
85244;BME280;75643;56.928;41.094;2024-02-14T16:03:19;102081.78;;;-17.06;71.21
85244;BME280;75643;56.928;41.094;2024-02-14T16:05:45;102134.59;;;-16.77;70.79
85244;BME280;75643;56.928;41.094;2024-02-14T16:08:16;102138.13;;;-16.69;71.44
85244;BME280;75643;56.928;41.094;2024-02-14T16:10:43;102160.38;;;-16.67;71.10
85244;BME280;75643;56.928;41.094;2024-02-14T16:13:12;102152.09;;;-16.78;70.97
85244;BME280;75643;56.928;41.094;2024-02-14T16:15:41;102165.75;;;-16.83;71.21
85244;BME280;75643;56.928;41.094;2024-02-14T16:18:08;102151.28;;;-16.97;71.39
85244;BME280;75643;56.928;41.094;2024-02-14T16:20:36;102139.66;;;-17.02;71.29
85244;BME280;75643;56.928;41.094;2024-02-14T16:23:03;102181.13;;;-16.94;71.42
85244;BME280;75643;56.928;41.094;2024-02-14T16:25:38;102175.56;;;-17.05;71.77
85244;BME280;75643;56.928;41.094;2024-02-14T16:28:07;102163.59;;;-17.06;71.59
85244;BME280;75643;56.928;41.094;2024-02-14T16:30:44;102197.28;;;-16.99;71.22
85244;BME280;75643;56.928;41.094;2024-02-14T16:33:16;102182.81;;;-17.13;71.51
85244;BME280;75643;56.928;41.094;2024-02-14T16:35:49;102179.06;;;-17.22;71.86
85244;BME280;75643;56.928;41.094;2024-02-14T16:38:16;102199.66;;;-17.19;71.48
85244;BME280;75643;56.928;41.094;2024-02-14T16:40:42;102203.34;;;-17.17;71.62
85244;BME280;75643;56.928;41.094;2024-02-14T16:43:10;102200.91;;;-17.23;71.92
85244;BME280;75643;56.928;41.094;2024-02-14T16:45:36;102202.03;;;-17.21;71.67
85244;BME280;75643;56.928;41.094;2024-02-14T16:48:07;102192.97;;;-17.31;72.43
85244;BME280;75643;56.928;41.094;2024-02-14T16:50:41;102169.56;;;-17.49;71.72
85244;BME280;75643;56.928;41.094;2024-02-14T16:53:11;102196.94;;;-17.33;71.82
85244;BME280;75643;56.928;41.094;2024-02-14T16:55:38;102195.97;;;-17.47;72.42
85244;BME280;75643;56.928;41.094;2024-02-14T16:58:05;102193.50;;;-17.65;72.25
85244;BME280;75643;56.928;41.094;2024-02-14T17:00:33;102184.41;;;-17.70;72.54
85244;BME280;75643;56.928;41.094;2024-02-14T17:03:02;102192.97;;;-17.75;72.39
85244;BME280;75643;56.928;41.094;2024-02-14T17:05:28;102195.50;;;-17.75;72.41
85244;BME280;75643;56.928;41.094;2024-02-14T17:07:56;102203.97;;;-17.74;72.63
85244;BME280;75643;56.928;41.094;2024-02-14T17:10:28;102211.13;;;-17.77;72.29
85244;BME280;75643;56.928;41.094;2024-02-14T17:12:56;102176.50;;;-17.97;72.57
85244;BME280;75643;56.928;41.094;2024-02-14T17:15:24;102165.44;;;-18.10;72.09
85244;BME280;75643;56.928;41.094;2024-02-14T17:17:51;102176.84;;;-18.06;72.73
85244;BME280;75643;56.928;41.094;2024-02-14T17:20:23;102204.63;;;-17.88;72.85
85244;BME280;75643;56.928;41.094;2024-02-14T17:22:51;102217.88;;;-17.83;72.59
85244;BME280;75643;56.928;41.094;2024-02-14T17:25:18;102213.53;;;-17.84;72.72
85244;BME280;75643;56.928;41.094;2024-02-14T17:27:48;102179.59;;;-18.05;73.19
85244;BME280;75643;56.928;41.094;2024-02-14T17:30:16;102180.06;;;-18.07;73.03
85244;BME280;75643;56.928;41.094;2024-02-14T17:32:47;102199.31;;;-18.02;73.33
85244;BME280;75643;56.928;41.094;2024-02-14T17:35:18;102210.03;;;-17.98;73.10
85244;BME280;75643;56.928;41.094;2024-02-14T17:37:48;102174.75;;;-18.21;73.05
85244;BME280;75643;56.928;41.094;2024-02-14T17:40:18;102217.66;;;-18.03;73.42
85244;BME280;75643;56.928;41.094;2024-02-14T17:42:48;102221.81;;;-18.04;73.15
85244;BME280;75643;56.928;41.094;2024-02-14T17:45:16;102186.47;;;-18.22;73.32
85244;BME280;75643;56.928;41.094;2024-02-14T17:47:45;102217.53;;;-18.10;73.89
85244;BME280;75643;56.928;41.094;2024-02-14T17:50:15;102216.38;;;-18.12;73.78
85244;BME280;75643;56.928;41.094;2024-02-14T17:52:43;102191.13;;;-18.31;73.90
85244;BME280;75643;56.928;41.094;2024-02-14T17:55:13;102225.44;;;-18.20;73.91
85244;BME280;75643;56.928;41.094;2024-02-14T17:57:47;102219.03;;;-18.23;74.51
85244;BME280;75643;56.928;41.094;2024-02-14T18:00:16;102220.59;;;-18.18;74.27
85244;BME280;75643;56.928;41.094;2024-02-14T18:02:46;102221.50;;;-18.18;74.22
85244;BME280;75643;56.928;41.094;2024-02-14T18:05:19;102212.59;;;-18.21;74.03
85244;BME280;75643;56.928;41.094;2024-02-14T18:07:51;102200.25;;;-18.25;74.01
85244;BME280;75643;56.928;41.094;2024-02-14T18:10:23;102210.31;;;-18.20;74.26
85244;BME280;75643;56.928;41.094;2024-02-14T18:12:53;102181.03;;;-18.31;74.46
85244;BME280;75643;56.928;41.094;2024-02-14T18:15:21;102211.91;;;-18.20;74.02
85244;BME280;75643;56.928;41.094;2024-02-14T18:17:49;102229.59;;;-18.20;74.48
85244;BME280;75643;56.928;41.094;2024-02-14T18:20:16;102245.13;;;-18.17;74.27